Arvilla, ND

5:18 AM CST on December 11, 2019 (GMT -0600)
Grand Forks Air Force Base | | Change Station
Active Advisory: Wind Chill Advisory

Elev 909 ft 47.96 °N, 97.40 °W | Updated 22 minutes ago

Clear
Clear
-13 °F
Feels Like -27 °F
N
6
Wind Variable Wind from WNW

Today
High -- | Low -- °F
--% Chance of Precip.
Yesterday
High -- | Low -- °F
Precip. -- in
Pressure 30.43 in
Visibility 10.0 miles
Clouds Clear
Windchill -27 °F
Dew Point -20 °F
Humidity 72%
Rainfall 0.00 in
Snow Depth Not available.
8:09 AM 4:37 PM
Waxing Gibbous, 99% visible
METAR KRDR 111056Z AUTO 30005KT 10SM CLR M25/M29 A3031 RMK AO2 SLP302 T12481286
Pressure 30.43 in
Visibility 10.0 miles
Clouds Clear
Windchill -27 °F
Dew Point -20 °F
Humidity 72%
Rainfall 0.00 in
Snow Depth Not available.
8:09 AM 4:37 PM
Waxing Gibbous, 99% visible
METAR KRDR 111056Z AUTO 30005KT 10SM CLR M25/M29 A3031 RMK AO2 SLP302 T12481286

Get Your Daily Forecast Email!

Thanks for signing up!

Be on the lookout for a verification email in your inbox.

You'll start receiving severe weather alerts in your inbox..

×

10-Day Weather Forecast

Almanac

Astronomy

Dec. 11, 2019 Rise Set
Actual Time
Civil Twilight
Nautical Twilight
Astronomical Twilight
Moon
Length of Visible Light
Length of Day
Tomorrow will be .
, % of the Moon is Illuminated

Today's Extremes

State Highs State Lows

Community

WunderPhotos

Category 6

Welcome to Category 6. This is the collective home for Weather Underground's featured writeups by Dr. Jeff Masters (right), Bob Henson (left), Chris Burt, and other regular contributors.

Nearby

Air Quality

  Air Quality AQ Index Pollutant
Not available.

Snow Depth

Station Depth Elevation

Earthquake Activity

City Distance Mag. Time & Date
Minimum magnitude displayed is 2.5.

Coastal Water Temperatures

Place Temperature

Stations

Nearby Weather Stations

Station Location Temp. Windchill Dew Point Humidity Wind Precip. Elev Updated Type
                   

Watches & Warnings

Wind Chill Advisory
Issued: 10:35 PM CST Dec. 10, 2019 – National Weather Service

... Wind Chill Advisory remains in effect until noon CST
Wednesday...

* what... very cold wind chills. Wind chills as low as 40 below
zero.

* Where... portions of west central Minnesota and northeast and
southeast North Dakota.

* When... until noon CST Wednesday.

* Impacts... the dangerously cold wind chills could cause
frostbite on exposed skin in as little as 10 minutes.

Precautionary/preparedness actions...

Use caution while traveling outside. Wear appropriate clothing, a
hat, and gloves.